Aviation Digital Data Service (ADDS)

Output produced by METARs form (2146 UTC 24 March 2019)
found at http://www.aviationweather.gov/metar/data/
 
KMAF 241722Z 2418/2518 25013G21KT P6SM SCT250 
     FM250100 27007KT P6SM SCT250 
     FM250800 36008KT P6SM SCT250
       
KMBG 242051Z 2421/2518 03010KT P6SM OVC009 
     FM250000 05010KT P6SM OVC009 
     FM251300 09006KT P6SM OVC005 
     FM251700 12006KT P6SM OVC007
       
KMBS 241720Z 2418/2518 26012KT P6SM SCT150 BKN250 
     FM242200 03014G22KT P6SM BKN018 
     FM250300 02011G19KT P6SM SKC
       
KMCB 241720Z 2418/2518 19008KT P6SM SCT030 BKN090 
     FM251000 00000KT 5SM BR BKN020 
     FM251500 23005KT P6SM OVC008
       
KMCC 241728Z 2418/2518 VRB03KT P6SM SCT250 
     FM250000 VRB03KT P6SM OVC150 
     FM251300 14006KT P6SM SCT050 OVC100
       
KMCE 241733Z 2418/2518 15004KT P6SM SKC
       
TAF KMCF 241600Z 2416/2522 14009KT 9999 FEW250 QNH3018INS 
     BECMG 2420/2421 24006KT 9999 FEW040 SCT250 QNH3015INS 
     BECMG 2505/2506 VRB06KT 9999 SCT030 QNH3010INS TX27/2420Z TN16/2511Z
       
KMCI 241722Z 2418/2518 28010KT P6SM BKN022 
     FM242000 31008KT P6SM BKN030 
     TEMPO 2420/2424 SCT030 BKN035 
     FM250100 33009KT P6SM BKN019 
     FM250500 01010KT P6SM OVC008 
     FM251600 02010KT P6SM SCT008 OVC013
       
KMCK 241730Z 2418/2518 02008KT P6SM OVC015 
     FM242100 03007KT P6SM OVC025 
     FM250000 02006KT P6SM BKN035 
     FM250200 01006KT P6SM OVC025 
     FM250800 VRB03KT P6SM OVC030 
     FM250900 VRB03KT 5SM BR OVC008 
     FM251600 14006KT P6SM OVC008
       
KMCN 241740Z 2418/2518 19008KT P6SM BKN250 
     FM250100 VRB03KT P6SM SCT200 
     FM251300 23006KT P6SM VCSH BKN090
       
KMCO 242102Z 2421/2524 12010KT P6SM SCT050 BKN250 
     FM250100 12005KT P6SM FEW060 SCT250 
     FM251400 16006KT P6SM SCT040 SCT250 
     FM251630 19007KT P6SM SCT045 SCT250 
     FM252100 22007KT P6SM SCT045 SCT250
       
KMCW 241725Z 2418/2518 05009KT 6SM BR OVC020 
     FM250000 03010KT P6SM OVC035 
     FM250500 04010KT P6SM BKN010 
     FM251400 06007KT P6SM BKN035
       
KMDT 242127Z 2421/2518 24010KT P6SM BKN200 
     FM250200 28004KT P6SM BKN080 
     FM251400 35008KT P6SM BKN080
       
KMDW 242106Z 2421/2524 04005KT 6SM -SHRA BR SCT025 OVC040 
     TEMPO 2421/2423 4SM -RA BR OVC025 
     FM242300 04013G23KT 6SM BR OVC020 
     TEMPO 2423/2502 4SM -RA BR SCT007 OVC012 
     FM251000 04015G25KT P6SM SCT018 
     FM252200 02012G17KT P6SM SKC
       
KMEI 241720Z 2418/2518 17007KT P6SM SCT100 
     FM250100 19003KT P6SM BKN090 
     FM251100 21003KT 5SM BR OVC025 
     FM251400 23008KT P6SM VCSH BKN012 OVC020
       
KMEM 242105Z 2421/2524 21010KT P6SM BKN040 
     FM250000 19006KT P6SM VCSH BKN030 
     FM250700 20006KT 5SM -SHRA VCTS OVC030CB 
     FM251000 32008KT P6SM VCSH OVC020 
     FM251200 34009KT P6SM BKN007 OVC020 
     FM251600 34009KT P6SM OVC020
       
KMER 241733Z 2418/2518 14005KT P6SM SKC
       
KMFE 241720Z 2418/2518 14015G22KT P6SM BKN025 
     FM250000 14008KT P6SM BKN050 
     FM251000 14006KT 6SM BR OVC007 
     FM251600 16008KT P6SM BKN015
       
KMFR 241720Z 2418/2518 VRB03KT P6SM SCT010 SCT250 
     FM241900 VRB03KT P6SM SCT250 
     FM242300 15011KT P6SM BKN250 
     FM250500 15011KT P6SM SCT080 OVC250 
     FM251000 15011KT P6SM OVC080 
     FM251500 15011KT P6SM SCT040 OVC070
       
TAF KMGE 242105Z 2421/2603 19010KT 9999 BKN150 OVC250 QNH3005INS 
     BECMG 2515/2516 22010KT 9999 VCSH BKN040 OVC100 QNH2998INS 
     BECMG 2520/2521 24010G15KT 9999 VCTS BKN020 OVC040 QNH2993INS 
     BECMG 2600/2601 26010KT 9999 NSW SCT020 BKN040 QNH2996INS TX23/2422Z
TN06/2511Z
       
KMGM 241720Z 2418/2518 19006KT P6SM BKN250 
     FM250000 21003KT P6SM FEW250 
     FM251500 24007KT P6SM BKN060
       
KMGW 241720Z 2418/2518 23006KT P6SM SCT120 BKN200 
     FM250800 24003KT P6SM VCSH OVC025 
     FM251000 27003KT 4SM BR OVC015 
     FM251500 02005KT 5SM -SHRA BR OVC015
       
KMHK 241732Z 2418/2518 32010KT P6SM BKN025 
     TEMPO 2421/2501 SCT025 BKN035 
     FM250100 01006KT P6SM BKN015 
     FM250600 36006KT P6SM BKN008
       
KMHR 241728Z 2418/2518 VRB04KT P6SM SCT250 
     FM250000 VRB04KT P6SM OVC150 
     FM251400 16007KT P6SM SCT050 OVC100 AMD NOT SKED
       
KMHT 241959Z 2420/2518 25010G17KT P6SM BKN250 
     FM242300 27004KT P6SM FEW150 BKN250 
     FM251100 33007KT P6SM BKN250
       
KMIA 242051Z 2421/2524 10015KT P6SM SCT045 SCT250 
     FM250100 09008KT P6SM SCT035 
     FM250700 VRB03KT P6SM SCT030 
     FM251400 10010KT P6SM SCT030 SCT050
       
TAF KMIB 241700Z 2417/2523 05012KT 9999 FEW010 OVC030 620303 QNH3031INS 
     BECMG 2502/2503 08006KT 9999 SCT015 BKN020 620202 QNH3021INS TXM03/2420Z
TNM07/2508Z
       
KMIV 241909Z 2419/2518 26010G20KT P6SM SCT250 
     FM242300 23006KT P6SM BKN250 
     FM250400 VRB03KT P6SM OVC100 
     FM251200 01007KT P6SM OVC060 
     FM251700 03010KT P6SM OVC040
       
KMKE 242025Z 2420/2524 03014G23KT P6SM VCSH OVC040 
     FM242300 03018G26KT P6SM OVC030 
     FM250400 03015G29KT P6SM BKN060 
     FM251100 04014KT P6SM SKC
       
KMKL 242043Z 2421/2518 20012G18KT P6SM BKN050 
     FM250000 19005KT P6SM BKN040 
     FM251000 20006KT P6SM VCTS OVC030CB 
     FM251300 30007KT P6SM VCSH OVC007 
     FM251600 33007KT P6SM OVC020
       
KMKT 241720Z 2418/2518 04007KT P6SM BKN050 
     FM242300 03012KT P6SM BKN025 
     FM250800 04010KT P6SM SCT020 
     FM251500 08006KT P6SM SKC
       
KMLB 241720Z 2418/2518 11012KT P6SM SCT040 BKN250 
     FM250000 12007KT P6SM FEW030 SCT250 
     FM251400 15007KT P6SM FEW045 SCT250 
     FM251700 12008KT P6SM SCT045 SCT250
       
KMLI 241730Z 2418/2518 14009KT 6SM BR VCSH SCT008 OVC015 
     FM242100 10005KT 5SM BR OVC015 
     FM250200 05009KT 5SM BR VCSH SCT008 OVC015 
     FM250600 04014G20KT P6SM BKN020 
     FM250900 04013KT P6SM OVC050
       
KMLS 241908Z 2419/2518 12013KT 6SM -RA BR FEW007 OVC025 
     TEMPO 2419/2420 SCT025 OVC090 
     FM242100 09011KT 5SM -RA BR FEW007 OVC012 
     FM250800 08010KT 1SM -RA BR OVC006 
     FM251600 08008KT 5SM -SHRA BR BKN010
       
KMLU 241726Z 2418/2518 20010KT P6SM BKN035 OVC100 
     TEMPO 2418/2421 BKN030 
     FM242100 20010KT P6SM BKN040 
     TEMPO 2504/2508 BKN015 
     FM250800 21010KT P6SM VCTS OVC015CB 
     TEMPO 2510/2514 VRB20G40KT 2SM +TSRA BR OVC008CB 
     FM251400 28010KT P6SM VCTS OVC015CB 
     FM251600 31012KT P6SM SCT030 SCT250
       
KMMH 241732Z 2418/2518 VRB05KT P6SM SCT200 
     FM251300 17008KT P6SM BKN150
       
TAF AMD KMMT 241819Z 2418/2521 20010KT 9999 FEW045 QNH3015INS 
     BECMG 2508/2509 18006KT 8000 BR SCT040 QNH3010INS 
     BECMG 2514/2515 22010G15KT 9999 NSW SCT050 QNH2995INS TX22/2421Z TN07/2512Z
       
KMOB 241743Z 2418/2518 15010G16KT P6SM SCT040 
     FM250600 VRB03KT P6SM FEW040 
     FM251200 00000KT 1/4SM FG BKN250 
     FM251500 24005KT P6SM OVC100
       
KMOD 241728Z 2418/2518 30004KT P6SM SCT250 
     FM250200 VRB04KT P6SM OVC150 
     FM251200 13006KT P6SM OVC100
       
KMOT 241905Z 2419/2518 04011KT P6SM FEW015 OVC035 
     FM242200 05010KT P6SM BKN050 
     FM250500 08005KT P6SM BKN160 
     FM251700 12006KT P6SM BKN025
       
KMPV 241720Z 2418/2518 27010KT P6SM FEW150 
     FM242000 31009KT P6SM BKN100 
     FM250000 VRB03KT P6SM OVC025 
     FM250500 32005KT P6SM VCSH OVC035 
     FM250800 00000KT P6SM SKC
       
KMQY 241724Z 2418/2518 19011KT P6SM -SHRA BKN045 OVC070 
     FM242100 20008KT P6SM OVC050 
     FM250700 20010KT 4SM -SHRA OVC040 
     FM251100 22008KT 3SM -SHRA BKN020 OVC035 
     FM251500 27010KT 5SM -SHRA BR OVC015
       
KMRY 241720Z 2418/2518 12007KT P6SM FEW250 
     FM241900 27006KT P6SM FEW030 SCT200 
     FM250300 11004KT P6SM FEW015 SCT150 
     FM251000 13005KT P6SM FEW015 BKN120
       
KMRB 241720Z 2418/2518 20008KT P6SM FEW130 SCT250 
     FM250000 VRB03KT P6SM SCT140 BKN250 
     FM251500 02006KT 4SM BR OVC040
       
KMSL 241720Z 2418/2518 20010KT P6SM BKN070 OVC250 
     TEMPO 2418/2420 -RA 
     FM250000 18004KT P6SM OVC060 
     TEMPO 2508/2511 P6SM -RA OVC030 
     FM251100 22005KT P6SM -RA OVC020 
     FM251500 23007KT P6SM -SHRA OVC015
       
KMSO 241738Z 2418/2518 VRB04KT P6SM SCT090 
     FM250000 01008KT P6SM VCSH OVC090 
     FM250300 VRB04KT P6SM -SHRA OVC040 
     FM250600 VRB03KT P6SM VCSH OVC060 
     FM251200 VRB03KT P6SM VCFG BKN100
       
KMSN 242025Z 2420/2518 05007KT P6SM VCSH OVC035 
     FM242230 05010G18KT P6SM OVC035 
     FM250400 04012G20KT P6SM FEW025 BKN040 
     FM250600 04011G19KT P6SM SCT060 
     FM251000 04010KT P6SM SKC
       
KMSP 242057Z 2421/2524 03011G18KT P6SM FEW025 BKN060 
     FM250600 03009KT P6SM SKC 
     FM251500 06006KT P6SM SKC
       
KMSS 241720Z 2418/2518 29011G20KT P6SM SCT045 
     FM242000 34007KT P6SM VCSH OVC030 
     FM242300 33006KT 2SM -SHSN BR OVC025 
     FM250300 VRB04KT P6SM SKC 
     FM251600 26013G21KT P6SM FEW250
       
KMSY 241720Z 2418/2524 17008KT P6SM SCT030 
     FM250100 VRB05KT P6SM BKN090 
     FM251100 00000KT 5SM BR BKN090 
     FM251400 VRB03KT P6SM SCT090
       
TAF KMTC 241700Z 2417/2523 22012KT 9999 SCT090 BKN110 QNH3003INS WND 32009KT AFT
2423 
     BECMG 2500/2501 02012G18KT 9999 BKN020 BKN080 610203 QNH3016INS 
     BECMG 2508/2510 02012KT 9999 FEW025 QNH3025INS TX12/2420Z TNM02/2511Z
       
KMTH 241725Z 2418/2518 10011G17KT P6SM SCT028 BKN045 
     TEMPO 2418/2420 BKN028 
     FM250200 08008KT P6SM FEW030 SCT050
       
KMTJ 241740Z 2418/2518 12006KT 6SM -RA BKN020 OVC040 
     FM241900 30012G20KT P6SM VCTS BKN060CB OVC090 
     TEMPO 2420/2424 4SM -TSRA BKN040CB OVC060 
     FM250200 30006KT P6SM SCT070 BKN100 
     FM250400 12005KT P6SM FEW060 SCT200 
     FM250700 15006KT P6SM FEW200
       
KMTN 241720Z 2418/2518 21010KT P6SM FEW140 SCT250 
     FM250000 18005KT P6SM SCT150 BKN250 
     FM251300 35004KT P6SM OVC050
       
KMTW 241721Z 2418/2518 05012G18KT P6SM BKN150 
     FM242100 03013G21KT P6SM BKN045 
     FM250300 02012G18KT P6SM SKC 
     FM250900 02010KT P6SM SKC 
     FM251500 02009KT P6SM SKC
       
KMWH 242134Z 2422/2518 VRB05KT 6SM -RA BR BKN016 OVC045 
     FM250600 10005KT P6SM BKN050 OVC090 
     FM251200 02004KT P6SM SCT250
       
TAF KMXF 241900Z 2419/2601 18009KT 9999 OVC250 QNH3006INS 
     BECMG 2503/2504 20006KT 9999 BKN050 OVC250 510101 QNH3003INS 
     BECMG 2514/2515 23012KT 9999 VCSH SCT020 OVC035 QNH3003INS 
     BECMG 2517/2518 24010G15KT 9000 -SHRA BKN020 OVC050 QNH2996INS 
     TEMPO 2523/2601 30012G18KT 6000 -TSRA BKN025CB TX24/2419Z TN11/2512Z LAST
NO AMD AFT 2423 NEXT 2511
       
KMYL 241720Z 2418/2518 VRB03KT 2SM -SNRA BKN010 OVC025 
     FM242100 19007KT P6SM VCSH BKN025 
     FM250300 VRB03KT 4SM BR OVC015
       
KMYR 241720Z 2418/2518 16010KT P6SM FEW250 
     FM250000 18002KT P6SM SCT250 
     FM251000 19005KT 6SM BR SCT040 SCT150 
     FM251500 20010KT P6SM SCT040 SCT100